ADDS METAR Data INFO
IDs: Format: Raw Decoded Include TAF

Data at: 1944 UTC 17 Feb 2018

KTTF 171938Z AUTO 22005KT 10SM CLR 01/M05 A3000 RMK AO2 T00051052
KTTF 171917Z AUTO 22003KT 10SM SCT080 00/M05 A3001 RMK AO2 T00031052
KTTF 171857Z AUTO 22003KT 10SM SCT029 SCT090 00/M05 A3004 RMK AO2 T00011053
KTTF 171837Z AUTO 22003KT 10SM BKN029 BKN034 BKN110 00/M05 A3005 RMK AO2 T00001054
KTTF 171817Z AUTO 21006KT 10SM SCT029 SCT034 OVC100 00/M05 A3007 RMK AO2 T00001053
KTTF 171757Z AUTO 22008KT 10SM SCT090 OVC110 00/M05 A3007 RMK AO2 T00001054 10000 21042
KTTF 171737Z AUTO 23008KT 10SM OVC100 00/M05 A3009 RMK AO2 T00001053
KTTF 171717Z AUTO 19006KT 10SM OVC100 00/M05 A3007 RMK AO2 T10021054
KTTF 171657Z AUTO 17008KT 10SM BKN110 00/M05 A3008 RMK AO2 T10021054
KTTF 171637Z AUTO 19006KT 10SM SCT120 00/M05 A3010 RMK AO2 T10041053
KTTF 171617Z AUTO 21005KT 10SM SCT120 00/M05 A3012 RMK AO2 T10051054
KTTF 171557Z AUTO 20004KT 10SM SCT120 M01/M06 A3013 RMK AO2 T10081056
KTTF 171537Z AUTO 19003KT 10SM CLR M01/M05 A3013 RMK AO2 T10101054
KTTF 171517Z AUTO 18006KT 10SM CLR M01/M05 A3014 RMK AO2 T10111055
KTTF 171456Z AUTO 19005KT 10SM CLR M01/M05 A3016 RMK AO2 T10131055
KTTF 171436Z AUTO 18008KT 10SM CLR M01/M05 A3018 RMK AO2 T10151053
KTTF 171416Z AUTO 18006KT 10SM SCT031 M02/M05 A3019 RMK AO2 T10171054
KTTF 171356Z AUTO 19007KT 10SM SCT033 M02/M06 A3021 RMK AO2 T10201059
KTTF 171336Z AUTO 19006KT 10SM BKN033 M02/M06 A3020 RMK AO2 T10221057
KTTF 171316Z AUTO 18006KT 10SM OVC033 M02/M06 A3021 RMK AO2 T10251059
KTTF 171256Z AUTO 18005KT 10SM OVC033 M03/M06 A3020 RMK AO2 T10301060
KTTF 171236Z AUTO 18005KT 10SM OVC033 M03/M06 A3020 RMK AO2 T10331060
KTTF 171216Z AUTO 18004KT 10SM OVC033 M04/M06 A3020 RMK AO2 T10361063
KTTF 171156Z AUTO 18004KT 10SM OVC033 M04/M07 A3020 RMK AO2 T10411070 11038 21066
KTTF 171136Z AUTO 18004KT 10SM OVC033 M04/M07 A3021 RMK AO2 T10441072
KTTF 171116Z AUTO 16005KT 10SM BKN035 M04/M07 A3021 RMK AO2 T10441072
KTTF 171055Z AUTO 18004KT 10SM SCT035 M05/M08 A3022 RMK AO2 T10501076
KTTF 171035Z AUTO 18004KT 10SM CLR M05/M07 A3022 RMK AO2 T10481075
KTTF 171015Z AUTO 18004KT 10SM SCT035 M05/M08 A3022 RMK AO2 T10501077
KTTF 170955Z AUTO 18003KT 10SM CLR M06/M08 A3023 RMK AO2 T10571081
KTTF 170935Z AUTO 19003KT 10SM CLR M05/M08 A3023 RMK AO2 T10541079
KTTF 170915Z AUTO 20003KT 10SM CLR M05/M07 A3024 RMK AO2 T10461070
KTTF 170855Z AUTO 20004KT 10SM CLR M05/M07 A3024 RMK AO2 T10541070
KTTF 170835Z AUTO 20004KT 10SM CLR M06/M07 A3023 RMK AO2 T10621074
KTTF 170815Z AUTO 00000KT 10SM CLR M07/M08 A3023 RMK AO2 T10661077
KTTF 170755Z AUTO 00000KT 10SM CLR M06/M07 A3023 RMK AO2 T10571070
KTTF 170735Z AUTO 18004KT 10SM CLR M05/M07 A3024 RMK AO2 T10511066
KTTF 170715Z AUTO 00000KT 10SM CLR M04/M06 A3026 RMK AO2 T10451063
KTTF 170655Z AUTO 00000KT 10SM CLR M05/M07 A3026 RMK AO2 T10471071
KTTF 170639Z AUTO 00000KT 10SM CLR M05/M07 A3026 RMK AO2 T10461068
KTTF 170619Z AUTO 21003KT 10SM CLR M05/M07 A3026 RMK AO2 T10531071
KTTF 170559Z AUTO 00000KT 10SM CLR M05/M07 A3027 RMK AO2 T10461071 11016 21055
KTTF 170539Z AUTO 00000KT 10SM CLR M04/M07 A3026 RMK AO2 T10411067
KTTF 170518Z AUTO 24003KT 10SM SCT039 M04/M07 A3027 RMK AO2 T10361069
KTTF 170458Z AUTO 23003KT 10SM SCT039 M05/M07 A3027 RMK AO2 T10491069
KTTF 170438Z AUTO 19004KT 10SM CLR M05/M07 A3027 RMK AO2 T10521070
KTTF 170418Z AUTO 16004KT 10SM CLR M04/M07 A3027 RMK AO2 T10401069
KTTF 170358Z AUTO 00000KT 10SM SCT042 M04/M06 A3027 RMK AO2 T10411060 400491050
KTTF 170338Z AUTO 00000KT 10SM SCT042 M04/M07 A3027 RMK AO2 T10411068
KTTF 170317Z AUTO 00000KT 10SM CLR M05/M07 A3027 RMK AO2 T10501068
KTTF 170257Z AUTO 19003KT 10SM CLR M05/M06 A3027 RMK AO2 T10461064
KTTF 170237Z AUTO 14004KT 10SM CLR M04/M06 A3027 RMK AO2 T10451061
KTTF 170217Z AUTO 00000KT 10SM SCT043 M04/M06 A3027 RMK AO2 T10431064
KTTF 170157Z AUTO 21003KT 10SM CLR M04/M06 A3027 RMK AO2 T10431063
KTTF 170137Z AUTO 00000KT 10SM CLR M04/M05 A3027 RMK AO2 T10361055
KTTF 170117Z AUTO 00000KT 10SM CLR M03/M07 A3026 RMK AO2 T10311075
KTTF 170057Z AUTO 00000KT 10SM CLR M04/M07 A3026 RMK AO2 T10371066
KTTF 170037Z AUTO 00000KT 10SM CLR M03/M07 A3025 RMK AO2 T10261067
KTTF 170017Z AUTO 00000KT 10SM CLR M02/M07 A3025 RMK AO2 T10241075
KTTF 162357Z AUTO 00000KT 10SM CLR M02/M08 A3026 RMK AO2 T10161076 10015 21016
KTTF 162337Z AUTO 00000KT 10SM CLR M01/M08 A3025 RMK AO2 T10141083
KTTF 162317Z AUTO 31004KT 10SM SCT041 M01/M09 A3024 RMK AO2 T10081092
KTTF 162256Z AUTO 30007KT 10SM SCT041 00/M09 A3023 RMK AO2 T10051092
KTTF 162236Z AUTO 29009G14KT 10SM OVC039 00/M09 A3022 RMK AO2 T00001086
KTTF 162216Z AUTO 29009KT 10SM OVC037 00/M08 A3022 RMK AO2 T00011085
KTTF 162156Z AUTO 30006KT 10SM OVC035 00/M08 A3021 RMK AO2 T00001078
KTTF 162136Z AUTO 33008KT 10SM OVC035 00/M08 A3021 RMK AO2 T00001081
KTTF 162116Z AUTO 32010G14KT 10SM OVC033 00/M07 A3020 RMK AO2 T00001066
KTTF 162056Z AUTO 32010KT 10SM OVC031 00/M06 A3019 RMK AO2 T00001065
KTTF 162036Z AUTO 33010KT 10SM OVC031 00/M07 A3018 RMK AO2 T00001067
KTTF 162016Z AUTO 32012G18KT 10SM OVC031 00/M06 A3017 RMK AO2 T00001065
KTTF 161956Z AUTO 32011KT 10SM OVC031 00/M06 A3015 RMK AO2 T00031064
KTTF 161936Z AUTO 32009KT 10SM BKN033 01/M06 A3014 RMK AO2 T00051063
KTTF 161916Z AUTO 30013G18KT 10SM BKN031 01/M06 A3013 RMK AO2 T00131058
KTTF 161856Z AUTO 31011G15KT 10SM BKN031 01/M06 A3012 RMK AO2 T00121060
KTTF 161835Z AUTO 33009G14KT 10SM SCT031 01/M06 A3011 RMK AO2 T00111064
KTTF 161815Z AUTO 32013G16KT 10SM CLR 01/M06 A3010 RMK AO2 T00121060
KTTF 161755Z AUTO 33014KT 10SM SCT028 01/M06 A3009 RMK AO2 T00121057 10015 21002
KTTF 161735Z AUTO 31010KT 10SM SCT028 01/M05 A3009 RMK AO2 T00071052
KTTF 161715Z AUTO 34011G16KT 10SM SCT024 01/M05 A3009 RMK AO2 T00101049
KTTF 161655Z AUTO 33010KT 10SM SCT022 00/M05 A3008 RMK AO2 T00011049
KTTF 161635Z AUTO 33009G16KT 10SM OVC020 00/M05 A3007 RMK AO2 T00001049
KTTF 161615Z AUTO 33009G14KT 10SM OVC020 00/M04 A3005 RMK AO2 T00001043
KTTF 161555Z AUTO 33013G17KT 10SM OVC020 00/M04 A3005 RMK AO2 T00001044
KTTF 161535Z AUTO 32013KT 10SM OVC020 00/M05 A3002 RMK AO2 T00001046
KTTF 161515Z AUTO 33013G20KT 10SM OVC020 00/M04 A3001 RMK AO2 T10021045
KTTF 161455Z AUTO 33011G17KT 10SM OVC018 00/M04 A3001 RMK AO2 T10011039
KTTF 161439Z AUTO 31013G18KT 10SM OVC018 00/M04 A2999 RMK AO2 T00001037
KTTF 161419Z AUTO 33013G18KT 10SM OVC020 00/M03 A2998 RMK AO2 T00001032
KTTF 161359Z AUTO 33012G16KT 10SM OVC020 00/M03 A2998 RMK AO2 T00021030
KTTF 161339Z AUTO 34013G16KT 10SM BKN020 OVC038 01/M03 A2995 RMK AO2 T00051026
KTTF 161319Z AUTO 33009KT 10SM SCT020 BKN038 BKN110 01/M02 A2993 RMK AO2 T00071023
KTTF 161259Z AUTO 33010KT 10SM SCT110 01/M02 A2992 RMK AO2 T00061018
KTTF 161239Z AUTO 32009G14KT 10SM BKN110 01/M02 A2990 RMK AO2 T00071018
KTTF 161219Z AUTO 31011G18KT 10SM OVC100 01/M01 A2990 RMK AO2 T00101012
KTTF 161159Z AUTO 32007KT 10SM OVC090 01/M01 A2987 RMK AO2 70037 T00131007 10037 20012
KTTF 161139Z AUTO 30007KT 10SM SCT040 OVC100 01/00 A2986 RMK AO2 T00141005
KTTF 161119Z AUTO 31008KT 10SM SCT040 OVC110 01/00 A2984 RMK AO2 T00141003
KTTF 161059Z AUTO 32006KT 10SM SCT018 OVC100 02/00 A2985 RMK AO2 T00161002
KTTF 161039Z AUTO 32004KT 10SM OVC018 02/00 A2983 RMK AO2 T00150000
KTTF 161018Z AUTO 34004KT 10SM OVC018 02/00 A2981 RMK AO2 T00180000
KTTF 160958Z AUTO 32006KT 10SM OVC016 02/00 A2981 RMK AO2 T00200001
KTTF 160938Z AUTO 33004KT 7SM OVC016 02/01 A2980 RMK AO2 T00180005
KTTF 160918Z AUTO 36004KT 5SM BR OVC016 02/01 A2980 RMK AO2 T00200007
KTTF 160858Z AUTO 00000KT 7SM OVC016 02/01 A2981 RMK AO2 T00230009
KTTF 160838Z AUTO 34004KT 7SM OVC016 03/01 A2979 RMK AO2 T00250012
KTTF 160818Z AUTO 33004KT 5SM BR OVC018 03/02 A2978 RMK AO2 T00260016
KTTF 160758Z AUTO 33005KT 7SM BKN018 OVC110 03/02 A2977 RMK AO2 T00250015